createdAt,value
2018-06-05T00:00:48.674Z,990.8
2018-06-05T00:01:49.343Z,990.8
2018-06-05T00:02:50.012Z,990.8
2018-06-05T00:03:50.680Z,990.8
2018-06-05T00:04:51.351Z,990.8
2018-06-05T00:05:52.021Z,990.8
2018-06-05T00:06:52.725Z,990.7
2018-06-05T00:07:53.393Z,990.7
2018-06-05T00:08:54.064Z,990.7
2018-06-05T00:09:54.732Z,990.7
2018-06-05T00:10:55.401Z,990.7
2018-06-05T00:11:56.070Z,990.7
2018-06-05T00:12:56.739Z,990.7
2018-06-05T00:13:57.408Z,990.7
2018-06-05T00:14:58.077Z,990.8
2018-06-05T00:15:58.748Z,990.7
2018-06-05T00:16:59.417Z,990.8
2018-06-05T00:18:00.089Z,990.7
2018-06-05T00:19:00.795Z,990.8
2018-06-05T00:20:01.466Z,990.8
2018-06-05T00:21:02.134Z,990.8
2018-06-05T00:22:02.804Z,990.7
2018-06-05T00:23:03.474Z,990.8
2018-06-05T00:24:04.142Z,990.8
2018-06-05T00:25:04.811Z,990.7
2018-06-05T00:26:05.479Z,990.7
2018-06-05T00:27:06.148Z,990.7
2018-06-05T00:28:06.817Z,990.7
2018-06-05T00:29:07.485Z,990.7
2018-06-05T00:30:08.154Z,990.7
2018-06-05T00:31:08.823Z,990.7
2018-06-05T00:32:09.492Z,990.7
2018-06-05T00:33:10.162Z,990.7
2018-06-05T00:34:10.831Z,990.7
2018-06-05T00:35:11.499Z,990.7
2018-06-05T00:36:12.168Z,990.7
2018-06-05T00:37:12.836Z,990.7
2018-06-05T00:38:13.512Z,990.7
2018-06-05T00:39:14.176Z,990.7
2018-06-05T00:40:14.849Z,990.7
2018-06-05T00:41:15.519Z,990.7
2018-06-05T00:42:16.188Z,990.7
2018-06-05T00:43:16.857Z,990.7
2018-06-05T00:44:17.526Z,990.7
2018-06-05T00:45:18.194Z,990.7
2018-06-05T00:46:18.862Z,990.7
2018-06-05T00:47:19.531Z,990.7
2018-06-05T00:48:20.200Z,990.7
2018-06-05T00:49:20.869Z,990.7
2018-06-05T00:50:21.538Z,990.8
2018-06-05T00:51:22.207Z,990.7
2018-06-05T00:52:22.876Z,990.7
2018-06-05T00:53:23.545Z,990.7
2018-06-05T00:54:24.216Z,990.7
2018-06-05T00:55:24.885Z,990.7
2018-06-05T00:56:25.553Z,990.7
2018-06-05T00:57:26.223Z,990.7
2018-06-05T00:58:26.928Z,990.7
2018-06-05T00:59:27.599Z,990.7
2018-06-05T01:00:28.304Z,990.7
2018-06-05T01:01:28.974Z,990.7
2018-06-05T01:02:29.643Z,990.8
2018-06-05T01:03:30.314Z,990.8
2018-06-05T01:04:30.981Z,990.8
2018-06-05T01:05:31.654Z,990.8
2018-06-05T01:06:32.354Z,990.8
2018-06-05T01:07:33.024Z,990.8
2018-06-05T01:08:33.692Z,990.8
2018-06-05T01:09:34.362Z,990.8
2018-06-05T01:10:35.031Z,990.8
2018-06-05T01:11:35.736Z,990.8
2018-06-05T01:12:36.406Z,990.8
2018-06-05T01:13:37.075Z,990.8
2018-06-05T01:14:37.746Z,990.8
2018-06-05T01:15:38.449Z,990.7
2018-06-05T01:16:39.119Z,990.7
2018-06-05T01:17:39.793Z,990.7
2018-06-05T01:18:40.456Z,990.7
2018-06-05T01:19:41.124Z,990.7
2018-06-05T01:20:41.792Z,990.7
2018-06-05T01:21:42.461Z,990.7
2018-06-05T01:22:43.139Z,990.7
2018-06-05T01:23:43.799Z,990.7
2018-06-05T01:24:44.468Z,990.7
2018-06-05T01:25:45.135Z,990.6
2018-06-05T01:26:45.805Z,990.6
2018-06-05T01:27:46.509Z,990.6
2018-06-05T01:28:47.178Z,990.6
2018-06-05T01:29:47.845Z,990.6
2018-06-05T01:30:48.513Z,990.7
2018-06-05T01:31:49.182Z,990.6
2018-06-05T01:32:49.850Z,990.7
2018-06-05T01:33:50.519Z,990.7
2018-06-05T01:34:51.186Z,990.7
2018-06-05T01:35:51.856Z,990.7
2018-06-05T01:36:52.521Z,990.7
2018-06-05T01:37:53.195Z,990.7
2018-06-05T01:38:53.860Z,990.7
2018-06-05T01:39:54.526Z,990.7
2018-06-05T01:40:55.193Z,990.7
2018-06-05T01:41:55.864Z,990.7
2018-06-05T01:42:56.568Z,990.7
2018-06-05T01:43:57.242Z,990.7
2018-06-05T01:44:57.942Z,990.7
2018-06-05T01:45:58.609Z,990.7
2018-06-05T01:46:59.277Z,990.7
2018-06-05T01:47:59.946Z,990.7
2018-06-05T01:49:00.614Z,990.6
2018-06-05T01:50:01.283Z,990.6
2018-06-05T01:51:01.953Z,990.7
2018-06-05T01:52:02.618Z,990.7
2018-06-05T01:53:03.288Z,990.7
2018-06-05T01:54:03.954Z,990.7
2018-06-05T01:55:04.629Z,990.6
2018-06-05T01:56:05.290Z,990.7
2018-06-05T01:57:05.958Z,990.7
2018-06-05T01:58:06.626Z,990.6
2018-06-05T01:59:07.295Z,990.6
2018-06-05T02:00:07.966Z,990.6
2018-06-05T02:01:08.635Z,990.6
2018-06-05T02:02:09.305Z,990.6
2018-06-05T02:03:09.975Z,990.6
2018-06-05T02:04:10.643Z,990.6
2018-06-05T02:05:11.312Z,990.6
2018-06-05T02:06:11.980Z,990.6
2018-06-05T02:07:12.648Z,990.7
2018-06-05T02:08:13.316Z,990.7
2018-06-05T02:09:13.985Z,990.7
2018-06-05T02:10:14.653Z,990.7
2018-06-05T02:11:15.322Z,990.6
2018-06-05T02:12:15.991Z,990.7
2018-06-05T02:13:16.661Z,990.6
2018-06-05T02:14:17.369Z,990.6
2018-06-05T02:15:18.034Z,990.6
2018-06-05T02:16:18.702Z,990.6
2018-06-05T02:17:19.373Z,990.6
2018-06-05T02:18:20.076Z,990.7
2018-06-05T02:19:20.746Z,990.7
2018-06-05T02:20:21.414Z,990.7
2018-06-05T02:21:22.083Z,990.7
2018-06-05T02:22:22.752Z,990.7
2018-06-05T02:23:23.422Z,990.7
2018-06-05T02:24:24.091Z,990.7
2018-06-05T02:25:24.766Z,990.7
2018-06-05T02:26:25.463Z,990.7
2018-06-05T02:27:26.132Z,990.7
2018-06-05T02:28:26.802Z,990.7
2018-06-05T02:29:27.469Z,990.7
2018-06-05T02:30:28.137Z,990.7
2018-06-05T02:31:28.806Z,990.7
2018-06-05T02:32:29.473Z,990.7
2018-06-05T02:33:30.141Z,990.7
2018-06-05T02:34:30.814Z,990.7
2018-06-05T02:35:31.478Z,990.7
2018-06-05T02:36:32.147Z,990.7
2018-06-05T02:37:32.848Z,990.7
2018-06-05T02:38:33.515Z,990.7
2018-06-05T02:39:34.182Z,990.7
2018-06-05T02:40:34.851Z,990.7
2018-06-05T02:41:35.519Z,990.7
2018-06-05T02:42:36.189Z,990.7
2018-06-05T02:43:36.862Z,990.7
2018-06-05T02:44:37.526Z,990.7
2018-06-05T02:45:38.195Z,990.7
2018-06-05T02:46:38.864Z,990.7
2018-06-05T02:47:39.535Z,990.7
2018-06-05T02:48:40.208Z,990.7
2018-06-05T02:49:40.875Z,990.8
2018-06-05T02:50:41.544Z,990.8
2018-06-05T02:51:42.212Z,990.8
2018-06-05T02:52:42.881Z,990.8
2018-06-05T02:53:43.554Z,990.8
2018-06-05T02:54:44.255Z,990.8
2018-06-05T02:55:44.961Z,990.8
2018-06-05T02:56:45.631Z,990.8
2018-06-05T02:57:46.300Z,990.9
2018-06-05T02:58:46.970Z,990.9
2018-06-05T02:59:47.639Z,990.9
2018-06-05T03:00:48.312Z,990.9
2018-06-05T03:01:49.015Z,990.9
2018-06-05T03:02:49.735Z,991.0
2018-06-05T03:03:50.404Z,990.9
2018-06-05T03:04:51.072Z,991.0
2018-06-05T03:05:51.741Z,991.0
2018-06-05T03:06:52.411Z,991.0
2018-06-05T03:07:53.129Z,991.0
2018-06-05T03:08:53.798Z,991.0
2018-06-05T03:09:54.468Z,991.0
2018-06-05T03:10:55.142Z,991.0
2018-06-05T03:11:55.808Z,991.1
2018-06-05T03:12:56.475Z,991.1
2018-06-05T03:13:57.144Z,991.1
2018-06-05T03:14:57.814Z,991.1
2018-06-05T03:15:58.495Z,991.1
2018-06-05T03:16:59.190Z,991.1
2018-06-05T03:17:59.860Z,991.1
2018-06-05T03:19:00.531Z,991.1
2018-06-05T03:20:01.204Z,991.1
2018-06-05T03:21:01.910Z,991.1
2018-06-05T03:22:02.581Z,991.0
2018-06-05T03:23:03.251Z,991.1
2018-06-05T03:24:03.923Z,991.1
2018-06-05T03:25:04.628Z,991.0
2018-06-05T03:26:05.296Z,991.0
2018-06-05T03:27:05.970Z,991.1
2018-06-05T03:28:06.638Z,991.1
2018-06-05T03:29:07.310Z,991.1
2018-06-05T03:30:07.983Z,991.1
2018-06-05T03:31:08.656Z,991.1
2018-06-05T03:32:09.328Z,991.1
2018-06-05T03:33:10.003Z,991.1
2018-06-05T03:34:10.673Z,991.1
2018-06-05T03:35:11.344Z,991.1
2018-06-05T03:36:12.019Z,991.1
2018-06-05T03:37:12.687Z,991.1
2018-06-05T03:38:13.359Z,991.2
2018-06-05T03:39:14.033Z,991.1
2018-06-05T03:40:14.705Z,991.1
2018-06-05T03:41:15.376Z,991.1
2018-06-05T03:42:16.049Z,991.1
2018-06-05T03:43:16.720Z,991.1
2018-06-05T03:44:17.393Z,991.1
2018-06-05T03:45:18.067Z,991.1
2018-06-05T03:46:18.735Z,991.1
2018-06-05T03:47:19.407Z,991.1
2018-06-05T03:48:20.081Z,991.1
2018-06-05T03:49:20.755Z,991.1
2018-06-05T03:50:21.427Z,991.1
2018-06-05T03:51:22.099Z,991.1
2018-06-05T03:52:22.773Z,991.1
2018-06-05T03:53:23.444Z,991.1
2018-06-05T03:54:24.118Z,991.1
2018-06-05T03:55:24.822Z,991.1
2018-06-05T03:56:25.541Z,991.1
2018-06-05T03:57:26.167Z,991.1
2018-06-05T03:58:26.839Z,991.1
2018-06-05T03:59:27.512Z,991.2
2018-06-05T04:00:28.188Z,991.2
2018-06-05T04:01:28.857Z,991.2
2018-06-05T04:02:29.531Z,991.2
2018-06-05T04:03:30.204Z,991.2
2018-06-05T04:04:30.875Z,991.2
2018-06-05T04:05:31.547Z,991.3
2018-06-05T04:06:32.219Z,991.2
2018-06-05T04:07:32.891Z,991.3
2018-06-05T04:08:33.601Z,991.3
2018-06-05T04:09:34.275Z,991.3
2018-06-05T04:10:34.947Z,991.3
2018-06-05T04:11:35.618Z,991.3
2018-06-05T04:12:36.291Z,991.3
2018-06-05T04:13:36.963Z,991.4
2018-06-05T04:14:37.635Z,991.4
2018-06-05T04:15:38.308Z,991.4
2018-06-05T04:16:38.979Z,991.4
2018-06-05T04:17:39.653Z,991.4
2018-06-05T04:18:40.328Z,991.4
2018-06-05T04:19:40.999Z,991.4
2018-06-05T04:20:41.671Z,991.4
2018-06-05T04:21:42.345Z,991.4
2018-06-05T04:22:43.019Z,991.4
2018-06-05T04:23:43.690Z,991.4
2018-06-05T04:24:44.362Z,991.4
2018-06-05T04:25:45.037Z,991.5
2018-06-05T04:26:45.706Z,991.5
2018-06-05T04:27:46.382Z,991.5
2018-06-05T04:28:47.091Z,991.5
2018-06-05T04:29:47.761Z,991.5
2018-06-05T04:30:48.434Z,991.5
2018-06-05T04:31:49.111Z,991.5
2018-06-05T04:32:49.780Z,991.5
2018-06-05T04:33:50.452Z,991.5
2018-06-05T04:34:51.124Z,991.6
2018-06-05T04:35:51.796Z,991.5
2018-06-05T04:36:52.472Z,991.6
2018-06-05T04:37:53.143Z,991.6
2018-06-05T04:38:53.815Z,991.6
2018-06-05T04:39:54.490Z,991.6
2018-06-05T04:40:55.195Z,991.6
2018-06-05T04:41:55.867Z,991.6
2018-06-05T04:42:56.541Z,991.7
2018-06-05T04:43:57.213Z,991.7
2018-06-05T04:44:57.886Z,991.7
2018-06-05T04:45:58.599Z,991.7
2018-06-05T04:46:59.267Z,991.6
2018-06-05T04:47:59.939Z,991.7
2018-06-05T04:49:00.611Z,991.6
2018-06-05T04:50:01.285Z,991.6
2018-06-05T04:51:01.959Z,991.6
2018-06-05T04:52:02.632Z,991.6
2018-06-05T04:53:03.334Z,991.7
2018-06-05T04:54:04.005Z,991.7
2018-06-05T04:55:04.678Z,991.7
2018-06-05T04:56:05.350Z,991.7
2018-06-05T04:57:06.025Z,991.7
2018-06-05T04:58:06.697Z,991.7
2018-06-05T04:59:07.370Z,991.7
2018-06-05T05:00:08.042Z,991.7
2018-06-05T05:01:08.715Z,991.8
2018-06-05T05:02:09.390Z,991.8
2018-06-05T05:03:10.063Z,991.8
2018-06-05T05:04:10.736Z,991.8
2018-06-05T05:05:11.408Z,991.8
2018-06-05T05:06:12.081Z,991.8
2018-06-05T05:07:12.756Z,991.8
2018-06-05T05:08:13.424Z,991.8
2018-06-05T05:09:14.101Z,991.8
2018-06-05T05:10:14.808Z,991.8
2018-06-05T05:11:15.481Z,991.8
2018-06-05T05:12:16.157Z,991.8
2018-06-05T05:13:16.835Z,991.8
2018-06-05T05:14:17.538Z,991.8
2018-06-05T05:15:18.213Z,991.8
2018-06-05T05:16:18.923Z,991.8
2018-06-05T05:17:19.597Z,991.8
2018-06-05T05:18:20.269Z,991.8
2018-06-05T05:19:20.943Z,991.8
2018-06-05T05:20:21.615Z,991.8
2018-06-05T05:21:22.292Z,991.8
2018-06-05T05:22:22.967Z,991.8
2018-06-05T05:23:23.639Z,991.8
2018-06-05T05:24:24.313Z,991.9
2018-06-05T05:25:24.986Z,991.9
2018-06-05T05:26:25.697Z,991.9
2018-06-05T05:27:26.371Z,991.9
2018-06-05T05:28:27.043Z,991.9
2018-06-05T05:29:27.720Z,991.9
2018-06-05T05:30:28.394Z,991.9
2018-06-05T05:31:29.068Z,991.9
2018-06-05T05:32:29.742Z,992.0
2018-06-05T05:33:30.416Z,991.9
2018-06-05T05:34:31.090Z,992.0
2018-06-05T05:35:31.764Z,992.0
2018-06-05T05:36:32.437Z,991.9
2018-06-05T05:37:33.110Z,992.0
2018-06-05T05:38:33.784Z,992.0
2018-06-05T05:39:34.458Z,992.0
2018-06-05T05:40:35.131Z,992.0
2018-06-05T05:41:35.807Z,992.0
2018-06-05T05:42:36.482Z,992.0
2018-06-05T05:43:37.156Z,992.0
2018-06-05T05:44:37.832Z,992.0
2018-06-05T05:45:38.544Z,992.0
2018-06-05T05:46:39.217Z,992.0
2018-06-05T05:47:39.927Z,992.0
2018-06-05T05:48:40.600Z,991.9
2018-06-05T05:49:41.275Z,992.0
2018-06-05T05:50:41.950Z,992.0
2018-06-05T05:51:42.622Z,992.0
2018-06-05T05:52:43.296Z,992.0
2018-06-05T05:53:43.972Z,992.0
2018-06-05T05:54:44.645Z,992.0
2018-06-05T05:55:45.318Z,992.0
2018-06-05T05:56:46.029Z,992.0
2018-06-05T05:57:46.703Z,991.9
2018-06-05T05:58:47.377Z,992.0
2018-06-05T05:59:48.056Z,992.0
2018-06-05T06:00:48.725Z,992.0
2018-06-05T06:01:49.398Z,992.0
2018-06-05T06:02:50.081Z,992.0
2018-06-05T06:03:50.831Z,992.0
2018-06-05T06:04:51.460Z,992.0
2018-06-05T06:05:52.135Z,992.0
2018-06-05T06:06:52.808Z,992.0
2018-06-05T06:07:53.481Z,992.1
2018-06-05T06:08:54.156Z,992.1
2018-06-05T06:09:54.829Z,992.1
2018-06-05T06:10:55.555Z,992.1
2018-06-05T06:11:56.208Z,992.0
2018-06-05T06:12:56.883Z,992.0
2018-06-05T06:13:57.595Z,992.1
2018-06-05T06:14:58.269Z,992.1
2018-06-05T06:15:58.943Z,992.1
2018-06-05T06:16:59.617Z,992.1
2018-06-05T06:18:00.290Z,992.1
2018-06-05T06:19:00.964Z,992.1
2018-06-05T06:20:01.638Z,992.1
2018-06-05T06:21:02.313Z,992.2
2018-06-05T06:22:02.989Z,992.2
2018-06-05T06:23:03.661Z,992.2
2018-06-05T06:24:04.335Z,992.2
2018-06-05T06:25:05.015Z,992.2
2018-06-05T06:26:05.685Z,992.2
2018-06-05T06:27:06.358Z,992.2
2018-06-05T06:28:07.031Z,992.1
2018-06-05T06:29:07.706Z,992.2
2018-06-05T06:30:08.380Z,992.2
2018-06-05T06:31:09.091Z,992.2
2018-06-05T06:32:09.762Z,992.2
2018-06-05T06:33:10.438Z,992.2
2018-06-05T06:34:11.118Z,992.2
2018-06-05T06:35:11.784Z,992.2
2018-06-05T06:36:12.458Z,992.2
2018-06-05T06:37:13.138Z,992.2
2018-06-05T06:38:13.809Z,992.2
2018-06-05T06:39:14.482Z,992.2
2018-06-05T06:40:15.157Z,992.2
2018-06-05T06:41:15.833Z,992.2
2018-06-05T06:42:16.541Z,992.2
2018-06-05T06:43:17.213Z,992.2
2018-06-05T06:44:17.887Z,992.2
2018-06-05T06:45:18.561Z,992.2
2018-06-05T06:46:19.237Z,992.2
2018-06-05T06:47:19.910Z,992.2
2018-06-05T06:48:20.621Z,992.2
2018-06-05T06:49:21.294Z,992.2
2018-06-05T06:50:22.008Z,992.2
2018-06-05T06:51:22.680Z,992.2
2018-06-05T06:52:23.353Z,992.2
2018-06-05T06:53:24.026Z,992.2
2018-06-05T06:54:24.744Z,992.2
2018-06-05T06:55:25.374Z,992.2
2018-06-05T06:56:26.050Z,992.2
2018-06-05T06:57:26.724Z,992.2
2018-06-05T06:58:27.405Z,992.2
2018-06-05T06:59:28.110Z,992.2
2018-06-05T07:00:28.784Z,992.2
2018-06-05T07:01:29.458Z,992.2
2018-06-05T07:02:30.131Z,992.2
2018-06-05T07:03:30.809Z,992.2
2018-06-05T07:04:31.482Z,992.2
2018-06-05T07:05:32.155Z,992.2
2018-06-05T07:06:32.830Z,992.2
2018-06-05T07:07:33.541Z,992.2
2018-06-05T07:08:34.216Z,992.2
2018-06-05T07:09:34.892Z,992.2
2018-06-05T07:10:35.565Z,992.2
2018-06-05T07:11:36.241Z,992.3
2018-06-05T07:12:36.916Z,992.3
2018-06-05T07:13:37.590Z,992.3
2018-06-05T07:14:38.269Z,992.3
2018-06-05T07:15:38.984Z,992.2
2018-06-05T07:16:39.651Z,992.2
2018-06-05T07:17:40.323Z,992.3
2018-06-05T07:18:40.996Z,992.2
2018-06-05T07:19:41.671Z,992.2
2018-06-05T07:20:42.347Z,992.2
2018-06-05T07:21:43.020Z,992.2
2018-06-05T07:22:43.695Z,992.2
2018-06-05T07:23:44.369Z,992.2
2018-06-05T07:24:45.044Z,992.3
2018-06-05T07:25:45.715Z,992.3
2018-06-05T07:26:46.390Z,992.3
2018-06-05T07:27:47.068Z,992.3
2018-06-05T07:28:47.742Z,992.3
2018-06-05T07:29:48.417Z,992.3
2018-06-05T07:30:49.090Z,992.3
2018-06-05T07:31:49.764Z,992.3
2018-06-05T07:32:50.437Z,992.3
2018-06-05T07:33:51.111Z,992.3
2018-06-05T07:34:51.787Z,992.3
2018-06-05T07:35:52.497Z,992.4
2018-06-05T07:36:53.134Z,992.4
2018-06-05T07:37:53.808Z,992.4
2018-06-05T07:38:54.483Z,992.4
2018-06-05T07:39:55.157Z,992.4
2018-06-05T07:40:55.830Z,992.4
2018-06-05T07:41:56.506Z,992.4
2018-06-05T07:42:57.180Z,992.4
2018-06-05T07:43:57.853Z,992.5
2018-06-05T07:44:58.566Z,992.5
2018-06-05T07:45:59.240Z,992.5
2018-06-05T07:46:59.916Z,992.5
2018-06-05T07:48:00.625Z,992.5
2018-06-05T07:49:01.298Z,992.5
2018-06-05T07:50:02.008Z,992.5
2018-06-05T07:51:02.652Z,992.5
2018-06-05T07:52:03.323Z,992.4
2018-06-05T07:53:03.997Z,992.5
2018-06-05T07:54:04.671Z,992.5
2018-06-05T07:55:05.346Z,992.5
2018-06-05T07:56:06.025Z,992.4
2018-06-05T07:57:06.729Z,992.5
2018-06-05T07:58:07.404Z,992.5
2018-06-05T07:59:08.082Z,992.5
2018-06-05T08:00:08.759Z,992.5
2018-06-05T08:01:09.471Z,992.5
2018-06-05T08:02:10.145Z,992.5
2018-06-05T08:03:10.820Z,992.5
2018-06-05T08:04:11.529Z,992.5
2018-06-05T08:05:12.202Z,992.5
2018-06-05T08:06:12.878Z,992.5
2018-06-05T08:07:13.554Z,992.5
2018-06-05T08:08:14.229Z,992.5
2018-06-05T08:09:14.902Z,992.5
2018-06-05T08:10:15.576Z,992.5
2018-06-05T08:11:16.252Z,992.5
2018-06-05T08:12:16.929Z,992.5
2018-06-05T08:13:17.601Z,992.5
2018-06-05T08:14:18.280Z,992.5
2018-06-05T08:15:18.954Z,992.5
2018-06-05T08:16:19.629Z,992.5
2018-06-05T08:17:20.304Z,992.5
2018-06-05T08:18:21.020Z,992.5
2018-06-05T08:19:21.653Z,992.5
2018-06-05T08:20:22.330Z,992.5
2018-06-05T08:21:23.004Z,992.5
2018-06-05T08:22:23.678Z,992.6
2018-06-05T08:23:24.352Z,992.5
2018-06-05T08:24:25.065Z,992.5
2018-06-05T08:25:25.702Z,992.6
2018-06-05T08:26:26.377Z,992.5
2018-06-05T08:27:27.052Z,992.5
2018-06-05T08:28:27.729Z,992.5
2018-06-05T08:29:28.405Z,992.6
2018-06-05T08:30:29.080Z,992.6
2018-06-05T08:31:29.757Z,992.6
2018-06-05T08:32:30.432Z,992.6
2018-06-05T08:33:31.108Z,992.6
2018-06-05T08:34:31.787Z,992.6
2018-06-05T08:35:32.464Z,992.6
2018-06-05T08:36:33.139Z,992.6
2018-06-05T08:37:33.815Z,992.7
2018-06-05T08:38:34.489Z,992.7
2018-06-05T08:39:35.166Z,992.7
2018-06-05T08:40:35.842Z,992.6
2018-06-05T08:41:36.518Z,992.6
2018-06-05T08:42:37.194Z,992.6
2018-06-05T08:43:37.869Z,992.6
2018-06-05T08:44:38.545Z,992.6
2018-06-05T08:45:39.223Z,992.6
2018-06-05T08:46:39.898Z,992.6
2018-06-05T08:47:40.577Z,992.7
2018-06-05T08:48:41.249Z,992.6
2018-06-05T08:49:41.923Z,992.6
2018-06-05T08:50:42.599Z,992.6
2018-06-05T08:51:43.528Z,992.6
2018-06-05T08:52:44.206Z,992.6
2018-06-05T08:53:44.880Z,992.7
2018-06-05T08:54:45.560Z,992.7
2018-06-05T08:55:46.234Z,992.7
2018-06-05T08:56:46.907Z,992.7
2018-06-05T08:57:47.583Z,992.7
2018-06-05T08:58:48.260Z,992.7
2018-06-05T08:59:48.954Z,992.7
2018-06-05T09:00:49.613Z,992.7
2018-06-05T09:01:50.289Z,992.7
2018-06-05T09:02:50.968Z,992.7
2018-06-05T09:03:51.640Z,992.7
2018-06-05T09:04:52.317Z,992.7
2018-06-05T09:05:52.993Z,992.7
2018-06-05T09:06:53.669Z,992.7
2018-06-05T09:07:54.344Z,992.7
2018-06-05T09:08:55.020Z,992.7
2018-06-05T09:09:55.698Z,992.7
2018-06-05T09:10:56.411Z,992.7
2018-06-05T09:11:57.049Z,992.8
2018-06-05T09:12:57.724Z,992.7
2018-06-05T09:13:58.401Z,992.8
2018-06-05T09:14:59.078Z,992.8
2018-06-05T09:15:59.753Z,992.8
2018-06-05T09:17:00.432Z,992.7
2018-06-05T09:18:01.107Z,992.8
2018-06-05T09:19:01.785Z,992.7
2018-06-05T09:20:02.461Z,992.7
2018-06-05T09:21:03.140Z,992.8
2018-06-05T09:22:03.864Z,992.7
2018-06-05T09:23:04.547Z,992.8
2018-06-05T09:24:05.257Z,992.8
2018-06-05T09:25:05.936Z,992.8
2018-06-05T09:26:06.611Z,992.7
2018-06-05T09:27:07.288Z,992.7
2018-06-05T09:28:07.965Z,992.8
2018-06-05T09:29:08.647Z,992.7
2018-06-05T09:30:09.321Z,992.7
2018-06-05T09:31:09.998Z,992.8
2018-06-05T09:32:10.680Z,992.8
2018-06-05T09:33:11.357Z,992.7
2018-06-05T09:34:12.037Z,992.8
2018-06-05T09:35:12.715Z,992.8
2018-06-05T09:36:13.394Z,992.8
2018-06-05T09:37:14.072Z,992.8
2018-06-05T09:38:14.751Z,992.8
2018-06-05T09:39:15.429Z,992.8
2018-06-05T09:40:16.107Z,992.8
2018-06-05T09:41:16.789Z,992.8
2018-06-05T09:42:17.468Z,992.8
2018-06-05T09:43:18.148Z,992.8
2018-06-05T09:44:18.827Z,992.8
2018-06-05T09:45:19.507Z,992.8
2018-06-05T09:46:20.188Z,992.8
2018-06-05T09:47:20.873Z,992.8
2018-06-05T09:48:21.583Z,992.9
2018-06-05T09:49:22.265Z,992.8
2018-06-05T09:50:22.943Z,992.9
2018-06-05T09:51:23.621Z,992.9
2018-06-05T09:52:24.343Z,992.9
2018-06-05T09:53:24.980Z,992.9
2018-06-05T09:54:25.657Z,992.9
2018-06-05T09:55:26.337Z,992.9
2018-06-05T09:56:27.029Z,992.9
2018-06-05T09:57:27.694Z,992.8
2018-06-05T09:58:28.475Z,992.9
2018-06-05T09:59:29.056Z,992.8
2018-06-05T10:00:29.773Z,992.8
2018-06-05T10:01:30.455Z,992.8
2018-06-05T10:02:31.133Z,992.8
2018-06-05T10:03:31.814Z,992.8
2018-06-05T10:04:32.493Z,992.8
2018-06-05T10:05:33.186Z,992.8
2018-06-05T10:06:33.855Z,992.8
2018-06-05T10:07:34.535Z,992.9
2018-06-05T10:08:35.214Z,992.9
2018-06-05T10:09:35.895Z,992.9
2018-06-05T10:10:36.577Z,992.9
2018-06-05T10:11:37.260Z,992.9
2018-06-05T10:12:37.940Z,992.8
2018-06-05T10:13:38.621Z,992.9
2018-06-05T10:14:39.301Z,992.8
2018-06-05T10:15:39.986Z,992.8
2018-06-05T10:16:40.664Z,992.8
2018-06-05T10:17:41.344Z,992.8
2018-06-05T10:18:42.025Z,992.8
2018-06-05T10:19:42.706Z,992.8
2018-06-05T10:20:43.386Z,992.8
2018-06-05T10:21:44.069Z,992.8
2018-06-05T10:22:44.748Z,992.8
2018-06-05T10:23:45.429Z,992.8
2018-06-05T10:24:46.109Z,992.8
2018-06-05T10:25:46.790Z,992.8
2018-06-05T10:26:47.473Z,992.8
2018-06-05T10:27:48.169Z,992.8
2018-06-05T10:28:48.872Z,992.8
2018-06-05T10:29:49.555Z,992.8
2018-06-05T10:30:50.231Z,992.8
2018-06-05T10:31:50.913Z,992.8
2018-06-05T10:32:51.596Z,992.8
2018-06-05T10:33:52.279Z,992.8
2018-06-05T10:34:53.016Z,992.8
2018-06-05T10:35:53.641Z,992.7
2018-06-05T10:36:54.322Z,992.7
2018-06-05T10:37:55.039Z,992.7
2018-06-05T10:38:55.723Z,992.7
2018-06-05T10:39:56.439Z,992.7
2018-06-05T10:40:57.121Z,992.7
2018-06-05T10:41:57.804Z,992.7
2018-06-05T10:42:58.484Z,992.7
2018-06-05T10:43:59.180Z,992.7
2018-06-05T10:44:59.884Z,992.7
2018-06-05T10:46:00.569Z,992.8
2018-06-05T10:47:01.245Z,992.7
2018-06-05T10:48:01.928Z,992.7
2018-06-05T10:49:02.610Z,992.7
2018-06-05T10:50:03.290Z,992.7
2018-06-05T10:51:03.973Z,992.7
2018-06-05T10:52:04.655Z,992.7
2018-06-05T10:53:05.338Z,992.7
2018-06-05T10:54:06.025Z,992.7
2018-06-05T10:55:06.737Z,992.7
2018-06-05T10:56:07.419Z,992.7
2018-06-05T10:57:08.102Z,992.7
2018-06-05T10:58:08.783Z,992.7
2018-06-05T10:59:09.466Z,992.7
2018-06-05T11:00:10.149Z,992.7
2018-06-05T11:01:10.831Z,992.7
2018-06-05T11:02:11.514Z,992.7
2018-06-05T11:03:12.195Z,992.7
2018-06-05T11:04:12.877Z,992.7
2018-06-05T11:05:13.560Z,992.7
2018-06-05T11:06:14.242Z,992.7
2018-06-05T11:07:14.924Z,992.7
2018-06-05T11:08:15.609Z,992.7
2018-06-05T11:09:16.288Z,992.7
2018-06-05T11:10:16.970Z,992.7
2018-06-05T11:11:17.651Z,992.7
2018-06-05T11:12:18.332Z,992.7
2018-06-05T11:13:19.014Z,992.7
2018-06-05T11:14:19.697Z,992.7
2018-06-05T11:15:20.379Z,992.7
2018-06-05T11:16:21.061Z,992.6
2018-06-05T11:17:21.745Z,992.6
2018-06-05T11:18:22.447Z,992.6
2018-06-05T11:19:23.107Z,992.6
2018-06-05T11:20:23.791Z,992.6
2018-06-05T11:21:24.508Z,992.6
2018-06-05T11:22:25.190Z,992.6
2018-06-05T11:23:25.871Z,992.6
2018-06-05T11:24:26.553Z,992.6
2018-06-05T11:25:27.235Z,992.5
2018-06-05T11:26:27.918Z,992.5
2018-06-05T11:27:28.601Z,992.5
2018-06-05T11:28:29.281Z,992.5
2018-06-05T11:29:29.962Z,992.5
2018-06-05T11:30:30.643Z,992.5
2018-06-05T11:31:31.361Z,992.5
2018-06-05T11:32:32.043Z,992.5
2018-06-05T11:33:32.722Z,992.4
2018-06-05T11:34:33.404Z,992.4
2018-06-05T11:35:34.088Z,992.4
2018-06-05T11:36:34.802Z,992.5
2018-06-05T11:37:35.482Z,992.5
2018-06-05T11:38:36.164Z,992.5
2018-06-05T11:39:36.847Z,992.5
2018-06-05T11:40:37.527Z,992.4
2018-06-05T11:41:38.210Z,992.4
2018-06-05T11:42:38.889Z,992.4
2018-06-05T11:43:39.569Z,992.4
2018-06-05T11:44:40.249Z,992.4
2018-06-05T11:45:40.932Z,992.4
2018-06-05T11:46:41.659Z,992.4
2018-06-05T11:47:42.294Z,992.3
2018-06-05T11:48:42.975Z,992.3
2018-06-05T11:49:43.658Z,992.3
2018-06-05T11:50:44.337Z,992.4
2018-06-05T11:51:45.018Z,992.3
2018-06-05T11:52:45.698Z,992.3
2018-06-05T11:53:46.379Z,992.3
2018-06-05T11:54:47.059Z,992.3
2018-06-05T11:55:47.739Z,992.2
2018-06-05T11:56:48.420Z,992.2
2018-06-05T11:57:49.100Z,992.2
2018-06-05T11:58:49.780Z,992.2
2018-06-05T11:59:50.458Z,992.2
2018-06-05T12:00:51.187Z,992.3
2018-06-05T12:01:51.818Z,992.3
2018-06-05T12:02:52.499Z,992.3
2018-06-05T12:03:53.177Z,992.3
2018-06-05T12:04:53.857Z,992.2
2018-06-05T12:05:54.536Z,992.2
2018-06-05T12:06:55.217Z,992.2
2018-06-05T12:07:55.894Z,992.2
2018-06-05T12:08:56.572Z,992.2
2018-06-05T12:09:57.253Z,992.2
2018-06-05T12:10:57.935Z,992.2
2018-06-05T12:11:58.610Z,992.1
2018-06-05T12:12:59.289Z,992.1
2018-06-05T12:13:59.968Z,992.1
2018-06-05T12:15:00.647Z,992.1
2018-06-05T12:16:01.329Z,992.1
2018-06-05T12:17:02.043Z,992.1
2018-06-05T12:18:02.725Z,992.1
2018-06-05T12:19:03.404Z,992.1
2018-06-05T12:20:04.085Z,992.1
2018-06-05T12:21:04.767Z,992.0
2018-06-05T12:22:05.479Z,992.0
2018-06-05T12:23:06.157Z,992.0
2018-06-05T12:24:06.839Z,992.0
2018-06-05T12:25:07.518Z,991.9
2018-06-05T12:26:08.199Z,991.9
2018-06-05T12:27:08.877Z,991.9
2018-06-05T12:28:09.558Z,991.9
2018-06-05T12:29:10.241Z,991.9
2018-06-05T12:30:10.918Z,991.9
2018-06-05T12:31:11.600Z,991.9
2018-06-05T12:32:12.279Z,991.8
2018-06-05T12:33:12.958Z,991.9
2018-06-05T12:34:13.637Z,991.9
2018-06-05T12:35:14.318Z,991.9
2018-06-05T12:36:14.998Z,991.9
2018-06-05T12:37:15.730Z,991.9
2018-06-05T12:38:16.359Z,991.9
2018-06-05T12:39:17.039Z,991.9
2018-06-05T12:40:17.718Z,991.9
2018-06-05T12:41:18.397Z,991.8
2018-06-05T12:42:19.077Z,991.9
2018-06-05T12:43:19.758Z,991.9
2018-06-05T12:44:20.473Z,991.9
2018-06-05T12:45:21.118Z,991.8
2018-06-05T12:46:21.797Z,991.8
2018-06-05T12:47:22.477Z,991.8
2018-06-05T12:48:23.155Z,991.8
2018-06-05T12:49:23.835Z,991.8
2018-06-05T12:50:24.515Z,991.8
2018-06-05T12:51:25.195Z,991.8
2018-06-05T12:52:25.876Z,991.8
2018-06-05T12:53:26.554Z,991.8
2018-06-05T12:54:27.234Z,991.9
2018-06-05T12:55:27.920Z,991.8
2018-06-05T12:56:28.597Z,991.9
2018-06-05T12:57:29.277Z,991.9
2018-06-05T12:58:29.957Z,991.8
2018-06-05T12:59:30.637Z,991.9
2018-06-05T13:00:31.318Z,991.9
2018-06-05T13:01:32.001Z,991.9